createdAt,value
2016-12-06T00:00:20.355Z,0
2016-12-06T00:01:20.371Z,0
2016-12-06T00:02:20.387Z,0
2016-12-06T00:03:20.399Z,0
2016-12-06T00:04:35.339Z,0
2016-12-06T00:05:35.356Z,0
2016-12-06T00:06:20.441Z,0
2016-12-06T00:07:20.456Z,0
2016-12-06T00:08:20.472Z,0
2016-12-06T00:09:20.485Z,0
2016-12-06T00:13:20.548Z,0
2016-12-06T00:14:20.602Z,0
2016-12-06T00:15:20.573Z,0
2016-12-06T00:16:20.591Z,0
2016-12-06T00:17:35.555Z,0
2016-12-06T00:18:20.671Z,0
2016-12-06T00:19:20.626Z,0
2016-12-06T00:20:35.561Z,0
2016-12-06T00:21:35.582Z,0
2016-12-06T00:22:20.685Z,0
2016-12-06T00:23:35.613Z,0
2016-12-06T00:24:20.708Z,0
2016-12-06T00:26:20.729Z,0
2016-12-06T00:27:20.744Z,0
2016-12-06T00:28:20.757Z,0
2016-12-06T00:29:20.776Z,0
2016-12-06T00:30:20.780Z,0
2016-12-06T00:31:20.797Z,0
2016-12-06T00:32:20.815Z,0
2016-12-06T00:33:20.831Z,0
2016-12-06T00:34:35.769Z,0
2016-12-06T00:35:20.865Z,0
2016-12-06T00:36:20.877Z,0
2016-12-06T00:37:35.815Z,0
2016-12-06T00:38:20.932Z,0
2016-12-06T00:39:21.220Z,0
2016-12-06T00:40:21.235Z,0
2016-12-06T00:41:20.937Z,0
2016-12-06T00:42:20.965Z,0
2016-12-06T00:43:20.972Z,0
2016-12-06T00:45:21.304Z,0
2016-12-06T00:46:21.022Z,0
2016-12-06T00:47:21.040Z,0
2016-12-06T00:49:21.057Z,0
2016-12-06T00:50:21.082Z,0
2016-12-06T00:51:21.092Z,0
2016-12-06T00:52:21.106Z,0
2016-12-06T00:53:36.041Z,0
2016-12-06T00:54:21.137Z,0
2016-12-06T00:55:21.169Z,0
2016-12-06T00:56:21.164Z,0
2016-12-06T00:57:21.180Z,0
2016-12-06T00:59:21.208Z,0
2016-12-06T01:00:21.222Z,0
2016-12-06T01:01:21.243Z,0
2016-12-06T01:04:21.282Z,0
2016-12-06T01:05:36.222Z,0
2016-12-06T01:06:21.309Z,0
2016-12-06T01:07:21.327Z,0
2016-12-06T01:08:36.268Z,0
2016-12-06T01:10:21.369Z,0
2016-12-06T01:11:36.606Z,0
2016-12-06T01:12:21.408Z,0
2016-12-06T01:14:21.429Z,0
2016-12-06T01:15:21.500Z,0
2016-12-06T01:16:21.462Z,0
2016-12-06T01:17:21.463Z,0
2016-12-06T01:18:21.492Z,0
2016-12-06T01:19:21.499Z,0
2016-12-06T01:20:21.521Z,0
2016-12-06T01:21:36.501Z,0
2016-12-06T01:23:21.556Z,0
2016-12-06T01:24:21.574Z,0
2016-12-06T01:25:21.593Z,0
2016-12-06T01:26:21.606Z,0
2016-12-06T01:27:21.627Z,0
2016-12-06T01:28:21.632Z,0
2016-12-06T01:29:21.650Z,0
2016-12-06T01:30:21.666Z,0
2016-12-06T01:31:21.678Z,0
2016-12-06T01:32:21.688Z,0
2016-12-06T01:34:21.719Z,0
2016-12-06T01:35:21.734Z,0
2016-12-06T01:36:21.745Z,0
2016-12-06T01:37:22.065Z,0
2016-12-06T01:38:21.779Z,0
2016-12-06T01:39:22.094Z,0
2016-12-06T01:40:36.728Z,0
2016-12-06T01:41:36.742Z,0
2016-12-06T01:42:36.758Z,0
2016-12-06T01:43:21.851Z,0
2016-12-06T01:44:21.868Z,0
2016-12-06T01:45:21.888Z,0
2016-12-06T01:46:21.902Z,0
2016-12-06T01:47:22.213Z,0
2016-12-06T01:48:21.928Z,0
2016-12-06T01:49:21.943Z,0
2016-12-06T01:50:21.955Z,0
2016-12-06T01:51:21.968Z,0
2016-12-06T01:52:21.986Z,0
2016-12-06T01:53:21.996Z,0
2016-12-06T01:54:36.953Z,0
2016-12-06T01:55:22.033Z,0
2016-12-06T01:56:36.966Z,0
2016-12-06T01:57:22.060Z,0
2016-12-06T01:58:22.074Z,0
2016-12-06T01:59:22.089Z,0
2016-12-06T02:00:22.107Z,0
2016-12-06T02:01:22.150Z,0
2016-12-06T02:02:22.137Z,0
2016-12-06T02:03:22.151Z,0
2016-12-06T02:04:22.165Z,0
2016-12-06T02:05:22.181Z,0
2016-12-06T02:06:22.194Z,0
2016-12-06T02:07:22.213Z,0
2016-12-06T02:08:22.221Z,0
2016-12-06T02:09:22.237Z,0
2016-12-06T02:11:22.272Z,0
2016-12-06T02:12:37.206Z,0
2016-12-06T02:13:22.300Z,0
2016-12-06T02:14:22.314Z,0
2016-12-06T02:15:22.338Z,0
2016-12-06T02:16:22.345Z,0
2016-12-06T02:17:22.384Z,0
2016-12-06T02:18:22.382Z,0
2016-12-06T02:20:22.402Z,0
2016-12-06T02:21:22.420Z,0
2016-12-06T02:22:37.663Z,0
2016-12-06T02:23:22.446Z,0
2016-12-06T02:24:37.387Z,0
2016-12-06T02:25:22.484Z,0
2016-12-06T02:26:37.418Z,0
2016-12-06T02:27:37.432Z,0
2016-12-06T02:28:37.455Z,0
2016-12-06T02:29:37.460Z,0
2016-12-06T02:30:22.559Z,0
2016-12-06T02:31:22.567Z,0
2016-12-06T02:32:22.593Z,0
2016-12-06T02:33:22.605Z,0
2016-12-06T02:34:22.620Z,0
2016-12-06T02:35:22.732Z,0
2016-12-06T02:36:22.644Z,0
2016-12-06T02:37:22.661Z,0
2016-12-06T02:38:22.695Z,0
2016-12-06T02:39:22.692Z,0
2016-12-06T02:40:37.630Z,0
2016-12-06T02:41:37.643Z,0
2016-12-06T02:42:22.736Z,0
2016-12-06T02:43:37.674Z,0
2016-12-06T02:44:22.765Z,0
2016-12-06T02:45:22.781Z,0
2016-12-06T02:46:22.796Z,0
2016-12-06T02:47:22.809Z,0
2016-12-06T02:48:22.824Z,0
2016-12-06T02:49:22.841Z,0
2016-12-06T02:50:22.857Z,0
2016-12-06T02:51:22.866Z,0
2016-12-06T02:52:22.883Z,0
2016-12-06T02:53:22.898Z,0
2016-12-06T02:54:22.917Z,0
2016-12-06T02:55:22.931Z,0
2016-12-06T02:56:37.869Z,0
2016-12-06T02:57:22.961Z,0
2016-12-06T02:58:22.984Z,0
2016-12-06T02:59:37.911Z,0
2016-12-06T03:00:23.001Z,0
2016-12-06T03:02:23.039Z,0
2016-12-06T03:03:37.966Z,0
2016-12-06T03:04:23.075Z,0
2016-12-06T03:05:23.105Z,0
2016-12-06T03:07:23.107Z,0
2016-12-06T03:08:23.130Z,0
2016-12-06T03:09:23.136Z,0
2016-12-06T03:10:38.379Z,0
2016-12-06T03:11:38.095Z,0
2016-12-06T03:12:23.187Z,0
2016-12-06T03:13:23.192Z,0
2016-12-06T03:14:23.209Z,0
2016-12-06T03:15:38.156Z,0
2016-12-06T03:16:23.251Z,0
2016-12-06T03:17:38.184Z,0
2016-12-06T03:18:23.328Z,0
2016-12-06T03:19:23.290Z,0
2016-12-06T03:20:23.303Z,0
2016-12-06T03:21:23.322Z,0
2016-12-06T03:22:23.335Z,0
2016-12-06T03:23:23.356Z,0
2016-12-06T03:24:23.390Z,0
2016-12-06T03:25:23.380Z,0
2016-12-06T03:26:23.397Z,0
2016-12-06T03:27:23.412Z,0
2016-12-06T03:28:23.431Z,0
2016-12-06T03:29:38.365Z,0
2016-12-06T03:30:38.379Z,0
2016-12-06T03:31:38.394Z,0
2016-12-06T03:32:23.565Z,0
2016-12-06T03:33:38.422Z,0
2016-12-06T03:34:38.435Z,0
2016-12-06T03:35:23.535Z,0
2016-12-06T03:36:23.545Z,0
2016-12-06T03:37:23.565Z,0
2016-12-06T03:38:23.574Z,0
2016-12-06T03:39:23.596Z,0
2016-12-06T03:40:23.615Z,0
2016-12-06T03:41:23.624Z,0
2016-12-06T03:42:23.632Z,0
2016-12-06T03:43:23.655Z,0
2016-12-06T03:45:23.680Z,0
2016-12-06T03:48:23.729Z,0
2016-12-06T03:49:24.040Z,0
2016-12-06T03:50:23.759Z,0
2016-12-06T03:51:23.776Z,0
2016-12-06T03:52:23.792Z,0
2016-12-06T03:54:24.120Z,0
2016-12-06T03:55:23.886Z,0
2016-12-06T03:56:38.779Z,0
2016-12-06T03:57:23.864Z,0
2016-12-06T03:58:24.189Z,0
2016-12-06T03:59:23.904Z,0
2016-12-06T04:00:23.915Z,0
2016-12-06T04:01:38.848Z,0
2016-12-06T04:02:23.938Z,0
2016-12-06T04:03:38.874Z,0
2016-12-06T04:04:23.972Z,0
2016-12-06T04:05:24.004Z,0
2016-12-06T04:06:24.310Z,0
2016-12-06T04:07:24.016Z,0
2016-12-06T04:08:24.037Z,0
2016-12-06T04:09:24.045Z,0
2016-12-06T04:10:24.076Z,0
2016-12-06T04:11:24.080Z,0
2016-12-06T04:12:39.020Z,0
2016-12-06T04:13:24.111Z,0
2016-12-06T04:14:39.047Z,0
2016-12-06T04:15:24.137Z,0
2016-12-06T04:16:39.076Z,0
2016-12-06T04:17:24.163Z,0
2016-12-06T04:18:39.110Z,0
2016-12-06T04:19:24.581Z,0
2016-12-06T04:20:39.131Z,0
2016-12-06T04:22:24.276Z,0
2016-12-06T04:23:24.265Z,0
2016-12-06T04:24:39.526Z,0
2016-12-06T04:25:24.289Z,0
2016-12-06T04:26:24.307Z,0
2016-12-06T04:28:24.342Z,0
2016-12-06T04:30:24.364Z,0
2016-12-06T04:31:24.385Z,0
2016-12-06T04:32:24.395Z,0
2016-12-06T04:33:24.419Z,0
2016-12-06T04:34:24.428Z,0
2016-12-06T04:35:24.445Z,0
2016-12-06T04:36:24.456Z,0
2016-12-06T04:37:24.465Z,0
2016-12-06T04:38:24.490Z,0
2016-12-06T04:39:24.503Z,0
2016-12-06T04:40:24.521Z,0
2016-12-06T04:41:24.538Z,0
2016-12-06T04:42:24.555Z,0
2016-12-06T04:43:24.559Z,0
2016-12-06T04:44:24.580Z,0
2016-12-06T04:45:24.591Z,0
2016-12-06T04:46:24.912Z,0
2016-12-06T04:47:24.625Z,0
2016-12-06T04:48:24.650Z,0
2016-12-06T04:50:39.596Z,0
2016-12-06T04:51:24.691Z,0
2016-12-06T04:52:24.708Z,0
2016-12-06T04:53:24.719Z,0
2016-12-06T04:54:24.735Z,0
2016-12-06T04:55:25.052Z,0
2016-12-06T04:56:24.766Z,0
2016-12-06T04:57:24.804Z,0
2016-12-06T04:58:24.792Z,0
2016-12-06T04:59:39.738Z,0
2016-12-06T05:00:24.868Z,0
2016-12-06T05:01:24.847Z,0
2016-12-06T05:02:24.856Z,0
2016-12-06T05:04:24.892Z,0
2016-12-06T05:05:24.901Z,0
2016-12-06T05:06:39.840Z,0
2016-12-06T05:07:39.853Z,0
2016-12-06T05:08:24.958Z,0
2016-12-06T05:09:24.964Z,0
2016-12-06T05:10:24.976Z,0
2016-12-06T05:11:25.026Z,0
2016-12-06T05:12:25.016Z,0
2016-12-06T05:13:25.327Z,0
2016-12-06T05:14:25.039Z,0
2016-12-06T05:15:25.052Z,0
2016-12-06T05:16:25.083Z,0
2016-12-06T05:17:25.088Z,0
2016-12-06T05:18:25.108Z,0
2016-12-06T05:19:25.121Z,0
2016-12-06T05:20:40.056Z,0
2016-12-06T05:21:25.153Z,0
2016-12-06T05:22:40.082Z,0
2016-12-06T05:23:40.098Z,0
2016-12-06T05:24:25.195Z,0
2016-12-06T05:25:25.213Z,0
2016-12-06T05:26:25.531Z,0
2016-12-06T05:27:25.241Z,0
2016-12-06T05:28:25.251Z,0
2016-12-06T05:29:25.277Z,0
2016-12-06T05:31:25.311Z,0
2016-12-06T05:33:25.335Z,0
2016-12-06T05:34:25.353Z,0
2016-12-06T05:35:40.598Z,0
2016-12-06T05:36:25.377Z,0
2016-12-06T05:37:25.404Z,0
2016-12-06T05:38:40.334Z,0
2016-12-06T05:39:25.428Z,0
2016-12-06T05:40:40.364Z,0
2016-12-06T05:41:25.458Z,0
2016-12-06T05:42:25.473Z,0
2016-12-06T05:43:25.797Z,0
2016-12-06T05:44:25.506Z,0
2016-12-06T05:45:25.523Z,0
2016-12-06T05:47:25.556Z,0
2016-12-06T05:48:25.561Z,0
2016-12-06T05:49:25.876Z,0
2016-12-06T05:50:25.594Z,0
2016-12-06T05:52:25.630Z,0
2016-12-06T05:53:40.570Z,0
2016-12-06T05:54:25.711Z,0
2016-12-06T05:55:25.686Z,0
2016-12-06T05:57:25.709Z,0
2016-12-06T05:58:25.723Z,0
2016-12-06T05:59:25.737Z,0
2016-12-06T06:00:25.751Z,0
2016-12-06T06:01:25.772Z,0
2016-12-06T06:02:26.083Z,0
2016-12-06T06:03:25.796Z,0
2016-12-06T06:04:25.822Z,0
2016-12-06T06:05:40.755Z,0
2016-12-06T06:06:25.896Z,0
2016-12-06T06:07:25.859Z,0
2016-12-06T06:09:25.895Z,0
2016-12-06T06:10:25.906Z,0
2016-12-06T06:11:25.955Z,0
2016-12-06T06:12:25.939Z,0
2016-12-06T06:14:25.971Z,0
2016-12-06T06:15:25.983Z,0
2016-12-06T06:16:26.031Z,0
2016-12-06T06:17:26.020Z,0
2016-12-06T06:18:26.035Z,0
2016-12-06T06:19:26.044Z,0
2016-12-06T06:20:40.991Z,0
2016-12-06T06:22:26.096Z,0
2016-12-06T06:23:26.423Z,0
2016-12-06T06:25:41.061Z,4
2016-12-06T06:26:26.153Z,4
2016-12-06T06:27:26.223Z,0
2016-12-06T06:28:26.189Z,4
2016-12-06T06:29:26.509Z,4
2016-12-06T06:30:26.215Z,4
2016-12-06T06:31:26.238Z,4
2016-12-06T06:32:26.305Z,4
2016-12-06T06:34:41.209Z,12
2016-12-06T06:35:26.297Z,12
2016-12-06T06:36:41.238Z,12
2016-12-06T06:38:26.394Z,16
2016-12-06T06:39:26.357Z,12
2016-12-06T06:40:26.380Z,12
2016-12-06T06:41:41.310Z,16
2016-12-06T06:43:41.341Z,24
2016-12-06T06:44:26.445Z,24
2016-12-06T06:45:26.453Z,24
2016-12-06T06:46:26.469Z,28
2016-12-06T06:47:26.482Z,28
2016-12-06T06:48:26.502Z,28
2016-12-06T06:49:26.520Z,32
2016-12-06T06:50:26.538Z,40
2016-12-06T06:51:26.544Z,52
2016-12-06T06:52:26.572Z,64
2016-12-06T06:53:26.876Z,76
2016-12-06T06:55:26.612Z,84
2016-12-06T06:56:26.636Z,92
2016-12-06T06:57:41.558Z,96
2016-12-06T06:58:26.677Z,100
2016-12-06T06:59:26.975Z,108
2016-12-06T07:00:26.998Z,104
2016-12-06T07:01:26.708Z,108
2016-12-06T07:03:26.740Z,112
2016-12-06T07:04:26.761Z,116
2016-12-06T07:05:26.755Z,136
2016-12-06T07:06:27.092Z,164
2016-12-06T07:07:26.795Z,204
2016-12-06T07:08:27.111Z,232
2016-12-06T07:09:26.827Z,260
2016-12-06T07:10:41.767Z,280
2016-12-06T07:11:26.867Z,276
2016-12-06T07:12:42.098Z,252
2016-12-06T07:13:42.105Z,220
2016-12-06T07:14:41.825Z,208
2016-12-06T07:15:42.080Z,216
2016-12-06T07:16:26.935Z,228
2016-12-06T07:17:26.951Z,252
2016-12-06T07:18:26.971Z,260
2016-12-06T07:20:26.995Z,260
2016-12-06T07:21:27.023Z,256
2016-12-06T07:22:27.036Z,268
2016-12-06T07:23:27.043Z,272
2016-12-06T07:24:28.061Z,264
2016-12-06T07:25:27.078Z,256
2016-12-06T07:26:27.402Z,248
2016-12-06T07:27:27.108Z,240
2016-12-06T07:28:42.050Z,244
2016-12-06T07:29:27.142Z,252
2016-12-06T07:30:27.159Z,272
2016-12-06T07:31:27.178Z,288
2016-12-06T07:32:27.191Z,308
2016-12-06T07:33:27.211Z,316
2016-12-06T07:34:27.229Z,308
2016-12-06T07:35:27.234Z,296
2016-12-06T07:36:27.251Z,288
2016-12-06T07:37:27.273Z,284
2016-12-06T07:38:27.278Z,284
2016-12-06T07:39:27.301Z,288
2016-12-06T07:40:27.334Z,292
2016-12-06T07:43:42.283Z,360
2016-12-06T07:44:27.379Z,364
2016-12-06T07:45:27.390Z,364
2016-12-06T07:46:42.326Z,368
2016-12-06T07:47:27.426Z,372
2016-12-06T07:48:42.357Z,376
2016-12-06T07:49:27.463Z,380
2016-12-06T07:50:27.469Z,380
2016-12-06T07:51:27.488Z,376
2016-12-06T07:52:27.500Z,372
2016-12-06T07:54:27.538Z,356
2016-12-06T07:55:27.554Z,364
2016-12-06T07:56:27.579Z,376
2016-12-06T07:57:42.518Z,404
2016-12-06T07:58:27.595Z,416
2016-12-06T07:59:42.533Z,432
2016-12-06T08:00:42.550Z,440
2016-12-06T08:01:42.614Z,440
2016-12-06T08:02:27.664Z,436
2016-12-06T08:03:27.686Z,424
2016-12-06T08:04:27.696Z,404
2016-12-06T08:05:28.003Z,380
2016-12-06T08:06:27.727Z,368
2016-12-06T08:08:27.756Z,356
2016-12-06T08:09:27.778Z,368
2016-12-06T08:10:27.788Z,392
2016-12-06T08:11:27.809Z,428
2016-12-06T08:12:27.820Z,468
2016-12-06T08:13:27.839Z,496
2016-12-06T08:14:27.856Z,520
2016-12-06T08:15:42.787Z,552
2016-12-06T08:16:42.809Z,592
2016-12-06T08:17:27.899Z,640
2016-12-06T08:18:42.834Z,696
2016-12-06T08:19:27.928Z,708
2016-12-06T08:20:27.943Z,700
2016-12-06T08:21:27.958Z,688
2016-12-06T08:22:27.978Z,692
2016-12-06T08:23:27.989Z,704
2016-12-06T08:24:28.320Z,724
2016-12-06T08:25:28.020Z,744
2016-12-06T08:26:28.036Z,748
2016-12-06T08:27:28.049Z,764
2016-12-06T08:28:28.066Z,772
2016-12-06T08:29:28.091Z,796
2016-12-06T08:30:28.406Z,836
2016-12-06T08:31:28.122Z,876
2016-12-06T08:32:43.061Z,948
2016-12-06T08:33:28.145Z,980
2016-12-06T08:34:28.166Z,1020
2016-12-06T08:35:28.186Z,1008
2016-12-06T08:36:28.201Z,968
2016-12-06T08:37:28.225Z,928
2016-12-06T08:38:28.227Z,880
2016-12-06T08:39:28.294Z,832
2016-12-06T08:40:28.262Z,800
2016-12-06T08:41:28.273Z,800
2016-12-06T08:42:28.292Z,824
2016-12-06T08:43:28.304Z,840
2016-12-06T08:44:28.325Z,852
2016-12-06T08:45:28.343Z,860
2016-12-06T08:46:28.365Z,876
2016-12-06T08:47:28.372Z,904
2016-12-06T08:48:43.615Z,944
2016-12-06T08:49:28.403Z,972
2016-12-06T08:50:28.418Z,980
2016-12-06T08:51:28.438Z,972
2016-12-06T08:52:28.451Z,984
2016-12-06T08:54:28.483Z,1016
2016-12-06T08:55:28.557Z,1020
2016-12-06T08:56:28.523Z,1036
2016-12-06T08:57:28.535Z,1068
2016-12-06T08:58:28.551Z,1116
2016-12-06T08:59:28.567Z,1148
2016-12-06T09:00:28.588Z,1164
2016-12-06T09:01:43.520Z,1168
2016-12-06T09:03:43.553Z,1148
2016-12-06T09:04:28.643Z,1128
2016-12-06T09:05:43.583Z,1104
2016-12-06T09:06:28.679Z,1096
2016-12-06T09:07:28.694Z,1092
2016-12-06T09:08:28.707Z,1096
2016-12-06T09:09:43.656Z,1092
2016-12-06T09:12:28.777Z,1092
2016-12-06T09:13:28.796Z,1116
2016-12-06T09:14:28.809Z,1140
2016-12-06T09:15:28.824Z,1156
2016-12-06T09:16:28.850Z,1180
2016-12-06T09:17:28.847Z,1196
2016-12-06T09:18:28.876Z,1188
2016-12-06T09:19:28.891Z,1200
2016-12-06T09:20:28.913Z,1208
2016-12-06T09:21:28.921Z,1220
2016-12-06T09:22:43.856Z,1240
2016-12-06T09:23:28.957Z,1240
2016-12-06T09:24:28.967Z,1244
2016-12-06T09:25:28.985Z,1252
2016-12-06T09:26:29.001Z,1264
2016-12-06T09:29:29.052Z,1284
2016-12-06T09:30:29.076Z,1276
2016-12-06T09:31:29.387Z,1256
2016-12-06T09:33:29.117Z,1256
2016-12-06T09:34:44.053Z,1236
2016-12-06T09:35:44.073Z,1220
2016-12-06T09:36:44.086Z,1208
2016-12-06T09:37:44.101Z,1212
2016-12-06T09:38:29.201Z,1220
2016-12-06T09:39:29.215Z,1212
2016-12-06T09:40:29.228Z,1188
2016-12-06T09:41:29.251Z,1148
2016-12-06T09:42:29.258Z,1120
2016-12-06T09:43:29.277Z,1112
2016-12-06T09:44:29.623Z,1088
2016-12-06T09:45:29.308Z,1060
2016-12-06T09:46:44.254Z,1020
2016-12-06T09:47:29.341Z,992
2016-12-06T09:48:29.361Z,956
2016-12-06T09:49:29.428Z,908
2016-12-06T09:50:29.699Z,864
2016-12-06T09:51:44.332Z,836
2016-12-06T09:52:44.347Z,840
2016-12-06T09:53:29.756Z,852
2016-12-06T09:54:29.459Z,860
2016-12-06T09:55:29.469Z,872
2016-12-06T09:56:29.483Z,876
2016-12-06T09:57:29.508Z,876
2016-12-06T09:58:29.528Z,868
2016-12-06T09:59:29.540Z,860
2016-12-06T10:00:29.559Z,860
2016-12-06T10:01:29.570Z,868
2016-12-06T10:02:29.592Z,884
2016-12-06T10:03:29.611Z,900
2016-12-06T10:04:29.983Z,904
2016-12-06T10:05:29.638Z,904
2016-12-06T10:06:29.653Z,904
2016-12-06T10:08:44.609Z,948
2016-12-06T10:10:44.941Z,1048
2016-12-06T10:11:44.657Z,1088
2016-12-06T10:12:29.756Z,1112
2016-12-06T10:13:29.767Z,1136
2016-12-06T10:14:29.791Z,1140
2016-12-06T10:15:29.798Z,1144
2016-12-06T10:16:30.119Z,1128
2016-12-06T10:18:29.849Z,1012
2016-12-06T10:19:29.864Z,956
2016-12-06T10:20:29.887Z,928
2016-12-06T10:21:29.901Z,928
2016-12-06T10:22:30.213Z,928
2016-12-06T10:23:44.856Z,932
2016-12-06T10:24:29.948Z,928
2016-12-06T10:26:29.981Z,948
2016-12-06T10:28:44.949Z,992
2016-12-06T10:30:30.051Z,1028
2016-12-06T10:31:30.066Z,1008
2016-12-06T10:33:30.098Z,976
2016-12-06T10:34:30.110Z,984
2016-12-06T10:35:30.126Z,960
2016-12-06T10:36:30.144Z,948
2016-12-06T10:37:45.084Z,972
2016-12-06T10:38:45.414Z,988
2016-12-06T10:39:30.195Z,988
2016-12-06T10:40:30.215Z,992
2016-12-06T10:41:30.228Z,1004
2016-12-06T10:42:30.247Z,1044
2016-12-06T10:43:30.257Z,1084
2016-12-06T10:44:30.333Z,1104
2016-12-06T10:45:30.290Z,1108
2016-12-06T10:46:30.310Z,1108
2016-12-06T10:47:30.322Z,1096
2016-12-06T10:49:30.360Z,1064
2016-12-06T10:50:45.301Z,1032
2016-12-06T10:51:30.394Z,1020
2016-12-06T10:52:30.431Z,1012
2016-12-06T10:53:30.420Z,1040
2016-12-06T10:54:30.440Z,1056
2016-12-06T10:55:30.459Z,1056
2016-12-06T10:56:30.479Z,1060
2016-12-06T10:57:30.485Z,1088
2016-12-06T10:58:30.505Z,1104
2016-12-06T10:59:30.523Z,1120
2016-12-06T11:01:30.883Z,1152
2016-12-06T11:02:30.573Z,1156
2016-12-06T11:03:30.587Z,1152
2016-12-06T11:04:30.603Z,1152
2016-12-06T11:05:30.633Z,1168
2016-12-06T11:06:30.633Z,1172
2016-12-06T11:07:30.653Z,1148
2016-12-06T11:08:45.597Z,1112
2016-12-06T11:09:45.614Z,1076
2016-12-06T11:11:30.724Z,1004
2016-12-06T11:12:45.658Z,972
2016-12-06T11:13:30.759Z,976
2016-12-06T11:14:30.766Z,992
2016-12-06T11:15:30.789Z,1016
2016-12-06T11:16:30.802Z,1052
2016-12-06T11:17:30.816Z,1096
2016-12-06T11:18:30.836Z,1144
2016-12-06T11:19:30.859Z,1228
2016-12-06T11:20:30.867Z,1336
2016-12-06T11:21:30.886Z,1424
2016-12-06T11:22:30.909Z,1508
2016-12-06T11:23:30.913Z,1568
2016-12-06T11:24:45.864Z,1572
2016-12-06T11:25:30.959Z,1540
2016-12-06T11:26:45.894Z,1440
2016-12-06T11:27:31.289Z,1392
2016-12-06T11:28:31.005Z,1356
2016-12-06T11:29:31.021Z,1344
2016-12-06T11:30:31.033Z,1364
2016-12-06T11:31:31.052Z,1384
2016-12-06T11:32:31.069Z,1348
2016-12-06T11:33:31.083Z,1288
2016-12-06T11:34:31.403Z,1236
2016-12-06T11:35:31.122Z,1216
2016-12-06T11:36:31.157Z,1168
2016-12-06T11:37:31.147Z,1148
2016-12-06T11:38:31.173Z,1084
2016-12-06T11:39:31.497Z,1016
2016-12-06T11:40:31.208Z,968
2016-12-06T11:41:31.212Z,920
2016-12-06T11:42:46.160Z,900
2016-12-06T11:43:31.251Z,924
2016-12-06T11:44:31.269Z,980
2016-12-06T11:45:31.287Z,1028
2016-12-06T11:46:31.314Z,1048
2016-12-06T11:48:31.333Z,1068
2016-12-06T11:49:31.350Z,1072
2016-12-06T11:50:31.377Z,1064
2016-12-06T11:51:31.397Z,1116
2016-12-06T11:52:31.407Z,1148
2016-12-06T11:53:46.347Z,1192
2016-12-06T11:55:31.754Z,1220
2016-12-06T11:56:46.396Z,1208
2016-12-06T11:57:31.486Z,1204
2016-12-06T11:58:46.427Z,1184
2016-12-06T11:59:31.568Z,1168
2016-12-06T12:00:31.543Z,1168
2016-12-06T12:01:31.554Z,1176
2016-12-06T12:02:31.570Z,1196
2016-12-06T12:03:31.586Z,1208
2016-12-06T12:04:31.607Z,1212
2016-12-06T12:05:31.624Z,1200
2016-12-06T12:06:31.636Z,1168
2016-12-06T12:07:31.658Z,1124
2016-12-06T12:09:31.734Z,1072
2016-12-06T12:10:31.707Z,1100
2016-12-06T12:11:31.726Z,1160
2016-12-06T12:12:31.746Z,1192
2016-12-06T12:14:31.771Z,1188
2016-12-06T12:15:31.792Z,1204
2016-12-06T12:16:31.803Z,1212
2016-12-06T12:17:31.828Z,1224
2016-12-06T12:18:31.838Z,1228
2016-12-06T12:19:31.864Z,1212
2016-12-06T12:20:31.875Z,1196
2016-12-06T12:21:31.898Z,1192
2016-12-06T12:22:31.903Z,1184
2016-12-06T12:23:31.927Z,1176
2016-12-06T12:24:31.941Z,1148
2016-12-06T12:25:32.008Z,1076
2016-12-06T12:26:31.968Z,980
2016-12-06T12:28:32.011Z,948
2016-12-06T12:29:46.951Z,1012
2016-12-06T12:30:32.037Z,1040
2016-12-06T12:31:32.060Z,1056
2016-12-06T12:32:32.081Z,1044
2016-12-06T12:33:32.092Z,1028
2016-12-06T12:34:32.111Z,996
2016-12-06T12:35:32.135Z,968
2016-12-06T12:36:32.145Z,944
2016-12-06T12:37:32.159Z,948
2016-12-06T12:38:32.171Z,968
2016-12-06T12:39:32.245Z,980
2016-12-06T12:40:32.216Z,980
2016-12-06T12:41:32.231Z,976
2016-12-06T12:43:32.266Z,968
2016-12-06T12:46:32.363Z,940
2016-12-06T12:47:32.332Z,924
2016-12-06T12:48:32.345Z,928
2016-12-06T12:49:32.354Z,932
2016-12-06T12:50:32.389Z,936
2016-12-06T12:52:32.412Z,948
2016-12-06T12:53:32.434Z,936
2016-12-06T12:54:32.454Z,932
2016-12-06T12:56:32.474Z,884
2016-12-06T12:57:32.500Z,848
2016-12-06T12:59:47.454Z,868
2016-12-06T13:00:32.546Z,868
2016-12-06T13:02:47.502Z,880
2016-12-06T13:03:47.519Z,884
2016-12-06T13:04:32.609Z,876
2016-12-06T13:05:32.634Z,880
2016-12-06T13:06:32.645Z,856
2016-12-06T13:07:32.665Z,832
2016-12-06T13:08:32.684Z,820
2016-12-06T13:09:32.697Z,828
2016-12-06T13:10:32.768Z,848
2016-12-06T13:11:32.733Z,864
2016-12-06T13:12:32.745Z,876
2016-12-06T13:13:32.760Z,876
2016-12-06T13:14:47.705Z,852
2016-12-06T13:15:47.721Z,832
2016-12-06T13:16:48.044Z,832
2016-12-06T13:17:47.756Z,832
2016-12-06T13:18:32.852Z,824
2016-12-06T13:19:32.869Z,812
2016-12-06T13:20:32.884Z,816
2016-12-06T13:21:32.903Z,820
2016-12-06T13:22:32.921Z,808
2016-12-06T13:23:32.937Z,796
2016-12-06T13:24:32.953Z,792
2016-12-06T13:25:32.975Z,796
2016-12-06T13:27:33.004Z,784
2016-12-06T13:28:33.018Z,768
2016-12-06T13:29:33.036Z,740
2016-12-06T13:30:33.105Z,716
2016-12-06T13:31:33.072Z,692
2016-12-06T13:32:33.398Z,680
2016-12-06T13:33:48.020Z,672
2016-12-06T13:34:33.177Z,652
2016-12-06T13:35:48.059Z,628
2016-12-06T13:36:33.154Z,620
2016-12-06T13:37:33.172Z,600
2016-12-06T13:38:33.213Z,576
2016-12-06T13:39:33.261Z,560
2016-12-06T13:40:33.218Z,560
2016-12-06T13:41:33.233Z,552
2016-12-06T13:42:33.263Z,544
2016-12-06T13:43:33.267Z,536
2016-12-06T13:44:33.292Z,520
2016-12-06T13:45:33.304Z,508
2016-12-06T13:46:33.325Z,492
2016-12-06T13:47:48.262Z,480
2016-12-06T13:48:48.277Z,468
2016-12-06T13:49:48.297Z,468
2016-12-06T13:50:48.312Z,468
2016-12-06T13:51:33.563Z,460
2016-12-06T13:52:33.426Z,460
2016-12-06T13:53:33.447Z,452
2016-12-06T13:54:33.454Z,440
2016-12-06T13:55:33.473Z,424
2016-12-06T13:56:33.499Z,412
2016-12-06T13:57:33.807Z,408
2016-12-06T13:58:33.538Z,396
2016-12-06T13:59:33.585Z,384
2016-12-06T14:00:33.561Z,376
2016-12-06T14:01:33.578Z,376
2016-12-06T14:02:33.892Z,380
2016-12-06T14:03:33.619Z,380
2016-12-06T14:04:33.638Z,376
2016-12-06T14:05:33.653Z,372
2016-12-06T14:06:33.672Z,368
2016-12-06T14:08:33.695Z,364
2016-12-06T14:09:33.711Z,356
2016-12-06T14:10:33.731Z,344
2016-12-06T14:11:33.738Z,324
2016-12-06T14:12:33.764Z,304
2016-12-06T14:13:33.785Z,276
2016-12-06T14:14:33.804Z,256
2016-12-06T14:15:34.145Z,240
2016-12-06T14:16:33.833Z,232
2016-12-06T14:17:33.856Z,216
2016-12-06T14:18:33.867Z,208
2016-12-06T14:19:48.812Z,200
2016-12-06T14:20:48.823Z,192
2016-12-06T14:21:33.986Z,188
2016-12-06T14:22:33.937Z,184
2016-12-06T14:23:33.951Z,180
2016-12-06T14:24:33.965Z,168
2016-12-06T14:25:33.987Z,156
2016-12-06T14:26:33.998Z,152
2016-12-06T14:27:34.016Z,148
2016-12-06T14:28:34.037Z,148
2016-12-06T14:29:34.047Z,140
2016-12-06T14:30:34.071Z,140
2016-12-06T14:31:34.092Z,136
2016-12-06T14:32:49.029Z,132
2016-12-06T14:33:34.151Z,124
2016-12-06T14:34:49.060Z,116
2016-12-06T14:35:49.077Z,112
2016-12-06T14:36:49.101Z,108
2016-12-06T14:37:34.196Z,100
2016-12-06T14:38:49.125Z,92
2016-12-06T14:39:34.229Z,88
2016-12-06T14:40:34.237Z,84
2016-12-06T14:41:34.287Z,80
2016-12-06T14:42:34.269Z,72
2016-12-06T14:43:49.265Z,68
2016-12-06T14:44:34.306Z,64
2016-12-06T14:46:34.339Z,60
2016-12-06T14:47:34.358Z,52
2016-12-06T14:48:34.379Z,52
2016-12-06T14:49:34.692Z,48
2016-12-06T14:50:34.411Z,44
2016-12-06T14:52:49.368Z,40
2016-12-06T14:53:34.462Z,40
2016-12-06T14:54:34.482Z,36
2016-12-06T14:55:34.506Z,32
2016-12-06T14:56:34.560Z,32
2016-12-06T14:57:34.526Z,32
2016-12-06T14:58:34.540Z,28
2016-12-06T14:59:49.487Z,24
2016-12-06T15:00:34.670Z,24
2016-12-06T15:02:34.606Z,20
2016-12-06T15:03:34.622Z,16
2016-12-06T15:04:34.639Z,16
2016-12-06T15:05:34.660Z,12
2016-12-06T15:06:34.674Z,12
2016-12-06T15:07:49.614Z,8
2016-12-06T15:09:49.648Z,8
2016-12-06T15:10:34.742Z,8
2016-12-06T15:11:34.757Z,8
2016-12-06T15:12:34.823Z,4
2016-12-06T15:15:34.818Z,4
2016-12-06T15:16:35.149Z,4
2016-12-06T15:17:34.913Z,0
2016-12-06T15:18:34.868Z,4
2016-12-06T15:19:34.893Z,4
2016-12-06T15:20:34.935Z,4
2016-12-06T15:21:34.924Z,0
2016-12-06T15:22:49.863Z,4
2016-12-06T15:23:49.880Z,4
2016-12-06T15:24:49.899Z,0
2016-12-06T15:25:34.990Z,0
2016-12-06T15:26:35.007Z,0
2016-12-06T15:27:35.029Z,0
2016-12-06T15:28:35.038Z,0
2016-12-06T15:29:35.054Z,0
2016-12-06T15:31:35.096Z,0